CST,Max TemperatureF,Mean TemperatureF,Min TemperatureF,Max Dew PointF,MeanDew PointF,Min DewpointF,Max Humidity, Mean Humidity, Min Humidity, Max Sea Level PressureIn, Mean Sea Level PressureIn, Min Sea Level PressureIn, Max VisibilityMiles, Mean VisibilityMiles, Min VisibilityMiles, Max Wind SpeedMPH, Mean Wind SpeedMPH, Max Gust SpeedMPH,PrecipitationIn, CloudCover, Events, WindDirDegrees
2013-12-1,53,38,24,37,31,21,86,65,47,30.25,30.12,29.96,10,10,10,10,3,,0.00,5,,203
2013-12-2,48,46,44,46,43,36,100,88,66,29.95,29.85,29.78,10,8,2,7,2,,0.00,8,,175
2013-12-3,57,52,46,52,48,46,100,88,77,29.84,29.81,29.79,10,10,4,8,4,,0.00,7,,167
2013-12-4,73,63,53,59,55,52,94,75,50,29.92,29.86,29.81,10,10,10,21,9,,0.00,4,,189
2013-12-5,69,55,41,64,54,39,100,88,78,30.06,29.97,29.90,10,9,2,14,6,,0.00,7,,216
2013-12-6,41,36,32,39,35,30,100,96,87,30.29,30.09,29.99,10,6,1,13,5,,0.00,8,,11
2013-12-7,30,29,28,30,27,27,100,91,86,30.45,30.38,30.30,10,9,1,13,7,,0.00,8,,37
2013-12-8,48,39,30,48,39,28,100,97,87,30.30,30.13,30.03,10,6,2,9,2,,0.00,8,,181
2013-12-9,48,38,28,48,34,28,100,94,87,30.20,30.14,30.05,10,8,2,8,3,,0.00,8,,347
2013-12-10,37,28,19,28,24,18,100,87,65,30.37,30.33,30.29,10,9,1,10,4,,0.00,3,,346
2013-12-11,46,30,15,27,21,14,100,77,37,30.48,30.40,30.34,10,10,6,8,1,,0.00,0,,261
2013-12-12,35,26,17,21,16,10,93,74,35,30.56,30.48,30.40,10,10,10,7,3,,0.00,2,,344
2013-12-13,44,29,14,23,16,10,93,55,25,30.39,30.24,30.08,10,10,10,9,1,,0.00,0,,165
2013-12-14,50,42,33,50,40,21,100,87,39,30.08,29.88,29.77,10,7,2,14,8,,0.00,7,,220
2013-12-15,33,30,28,32,27,25,100,89,80,29.92,29.92,29.92,10,10,4,12,7,,0.00,8,,297
2013-12-16,50,38,26,34,29,25,100,80,54,30.19,30.12,30.08,10,10,10,15,5,,0.00,1,,211
2013-12-17,55,38,21,36,28,19,93,68,39,30.27,30.15,30.04,10,10,10,17,5,,0.00,0,,248
2013-12-18,46,32,17,27,19,16,100,68,32,30.35,30.27,30.20,10,10,10,7,1,,0.00,0,,190
2013-12-19,60,42,24,28,22,16,80,40,22,30.24,30.16,30.09,10,10,10,16,6,,0.00,0,,192
2013-12-20,62,56,51,54,44,25,94,65,35,30.09,30.05,29.97,10,10,4,17,9,,0.00,7,,180
2013-12-21,71,64,57,63,59,54,94,82,69,29.97,29.83,29.73,10,10,1,24,12,39,0.00,6,,186
2013-12-22,57,54,51,57,54,52,100,93,88,29.82,29.80,29.78,10,9,3,15,8,,0.00,7,,206
2013-12-23,51,38,26,52,29,21,100,84,70,,,,10,9,3,14,8,,0.00,7,,354
2013-12-24,30,22,15,21,16,10,86,70,44,30.50,30.45,30.40,10,10,10,12,4,,0.00,3,,353
2013-12-25,44,29,14,25,18,12,93,72,37,30.42,30.34,30.28,10,10,10,7,1,,0.00,0,,217
2013-12-26,42,30,19,27,22,18,100,78,42,30.40,30.35,30.30,10,10,10,6,2,,0.00,1,,284
2013-12-27,51,34,17,27,20,14,100,73,26,30.45,30.39,30.36,10,10,10,6,0,,0.00,0,,213
2013-12-28,46,32,19,39,29,18,100,83,50,30.35,30.21,29.92,10,8,2,7,1,,0.00,3,,189
2013-12-29,46,40,33,39,38,32,100,92,71,30.09,29.96,29.89,10,8,2,9,1,,0.00,6,,286
2013-12-30,32,30,28,30,27,25,100,91,80,30.25,30.19,30.09,10,10,4,7,3,,0.00,8,,346
2013-12-31,41,30,19,25,22,18,100,79,45,30.44,30.34,30.25,10,9,3,7,1,,0.00,2,,256